sensor_id;sensor_type;location;lat;lon;timestamp;pressure;altitude;pressure_sealevel;temperature;humidity
30636;BME280;17400;52.392;9.750;2023-06-10T00:00:08;101090.47;;;21.08;53.36
30636;BME280;17400;52.392;9.750;2023-06-10T00:02:40;101087.91;;;21.02;54.20
30636;BME280;17400;52.392;9.750;2023-06-10T00:05:09;101093.09;;;20.98;54.28
30636;BME280;17400;52.392;9.750;2023-06-10T00:07:37;101093.56;;;20.90;55.14
30636;BME280;17400;52.392;9.750;2023-06-10T00:10:06;101094.13;;;20.92;54.95
30636;BME280;17400;52.392;9.750;2023-06-10T00:12:35;101098.50;;;20.88;55.56
30636;BME280;17400;52.392;9.750;2023-06-10T00:15:05;101101.47;;;20.86;55.68
30636;BME280;17400;52.392;9.750;2023-06-10T00:17:34;101103.31;;;20.58;57.17
30636;BME280;17400;52.392;9.750;2023-06-10T00:20:08;101095.84;;;20.54;57.76
30636;BME280;17400;52.392;9.750;2023-06-10T00:22:41;101103.06;;;20.60;57.49
30636;BME280;17400;52.392;9.750;2023-06-10T00:25:13;101108.50;;;20.55;58.58
30636;BME280;17400;52.392;9.750;2023-06-10T00:27:41;101102.94;;;20.50;58.67
30636;BME280;17400;52.392;9.750;2023-06-10T00:30:10;101103.22;;;20.31;59.70
30636;BME280;17400;52.392;9.750;2023-06-10T00:32:37;101110.41;;;20.15;61.21
30636;BME280;17400;52.392;9.750;2023-06-10T00:35:08;101108.56;;;20.21;61.66
30636;BME280;17400;52.392;9.750;2023-06-10T00:37:36;101104.56;;;20.28;61.13
30636;BME280;17400;52.392;9.750;2023-06-10T00:40:07;101103.53;;;20.35;61.43
30636;BME280;17400;52.392;9.750;2023-06-10T00:42:36;101104.63;;;20.34;62.26
30636;BME280;17400;52.392;9.750;2023-06-10T00:45:05;101106.06;;;20.36;62.18
30636;BME280;17400;52.392;9.750;2023-06-10T00:47:34;101106.53;;;20.33;62.94
30636;BME280;17400;52.392;9.750;2023-06-10T00:50:04;101105.72;;;20.33;62.78
30636;BME280;17400;52.392;9.750;2023-06-10T00:52:35;101109.03;;;20.35;62.85
30636;BME280;17400;52.392;9.750;2023-06-10T00:55:03;101113.06;;;20.27;64.42
30636;BME280;17400;52.392;9.750;2023-06-10T00:57:32;101099.81;;;20.24;64.77
30636;BME280;17400;52.392;9.750;2023-06-10T01:00:00;101106.34;;;20.18;65.65
30636;BME280;17400;52.392;9.750;2023-06-10T01:02:29;101104.16;;;20.03;67.74
30636;BME280;17400;52.392;9.750;2023-06-10T01:04:58;101103.84;;;19.99;67.10
30636;BME280;17400;52.392;9.750;2023-06-10T01:07:30;101112.66;;;20.01;67.62
30636;BME280;17400;52.392;9.750;2023-06-10T01:10:05;101116.25;;;19.85;70.75
30636;BME280;17400;52.392;9.750;2023-06-10T01:12:39;101113.50;;;19.85;71.06
30636;BME280;17400;52.392;9.750;2023-06-10T01:15:09;101112.50;;;19.91;71.11
30636;BME280;17400;52.392;9.750;2023-06-10T01:17:55;101109.72;;;19.57;74.16
30636;BME280;17400;52.392;9.750;2023-06-10T01:20:24;101108.78;;;19.22;76.91
30636;BME280;17400;52.392;9.750;2023-06-10T01:22:55;101116.81;;;19.24;78.43
30636;BME280;17400;52.392;9.750;2023-06-10T01:25:25;101111.97;;;19.31;78.12
30636;BME280;17400;52.392;9.750;2023-06-10T01:28:00;101124.34;;;19.45;78.09
30636;BME280;17400;52.392;9.750;2023-06-10T01:30:34;101119.69;;;19.17;80.79
30636;BME280;17400;52.392;9.750;2023-06-10T01:33:07;101111.31;;;19.24;80.33
30636;BME280;17400;52.392;9.750;2023-06-10T01:35:37;101126.19;;;18.87;83.56
30636;BME280;17400;52.392;9.750;2023-06-10T01:38:07;101128.25;;;18.92;82.20
30636;BME280;17400;52.392;9.750;2023-06-10T01:40:36;101123.59;;;18.80;84.45
30636;BME280;17400;52.392;9.750;2023-06-10T01:43:05;101122.53;;;18.81;84.86
30636;BME280;17400;52.392;9.750;2023-06-10T01:45:33;101118.69;;;18.82;84.95
30636;BME280;17400;52.392;9.750;2023-06-10T01:48:00;101117.50;;;18.90;83.88
30636;BME280;17400;52.392;9.750;2023-06-10T01:50:28;101121.22;;;18.96;84.44
30636;BME280;17400;52.392;9.750;2023-06-10T01:52:57;101123.56;;;19.04;82.81
30636;BME280;17400;52.392;9.750;2023-06-10T01:55:27;101125.81;;;19.07;83.26
30636;BME280;17400;52.392;9.750;2023-06-10T01:57:55;101112.59;;;19.04;83.93
30636;BME280;17400;52.392;9.750;2023-06-10T02:00:23;101123.44;;;18.87;85.85
30636;BME280;17400;52.392;9.750;2023-06-10T02:02:51;101126.81;;;18.77;86.91
30636;BME280;17400;52.392;9.750;2023-06-10T02:05:19;101125.25;;;18.81;85.92
30636;BME280;17400;52.392;9.750;2023-06-10T02:07:47;101134.59;;;18.69;87.53
30636;BME280;17400;52.392;9.750;2023-06-10T02:10:15;101142.34;;;18.48;89.62
30636;BME280;17400;52.392;9.750;2023-06-10T02:12:44;101140.56;;;18.54;88.72
30636;BME280;17400;52.392;9.750;2023-06-10T02:15:12;101145.44;;;18.63;89.13
30636;BME280;17400;52.392;9.750;2023-06-10T02:17:40;101146.97;;;18.71;87.24
30636;BME280;17400;52.392;9.750;2023-06-10T02:20:08;101140.69;;;18.71;89.66
30636;BME280;17400;52.392;9.750;2023-06-10T02:22:37;101149.38;;;18.68;89.97
30636;BME280;17400;52.392;9.750;2023-06-10T02:25:06;101149.63;;;18.42;92.01
30636;BME280;17400;52.392;9.750;2023-06-10T02:27:34;101153.44;;;18.18;95.33
30636;BME280;17400;52.392;9.750;2023-06-10T02:30:05;101150.47;;;18.19;95.58
30636;BME280;17400;52.392;9.750;2023-06-10T02:32:36;101159.28;;;18.21;95.25
30636;BME280;17400;52.392;9.750;2023-06-10T02:35:05;101160.81;;;18.17;94.64
30636;BME280;17400;52.392;9.750;2023-06-10T02:37:33;101160.13;;;18.22;95.22
30636;BME280;17400;52.392;9.750;2023-06-10T02:40:01;101159.16;;;18.28;93.84
30636;BME280;17400;52.392;9.750;2023-06-10T02:42:30;101166.44;;;18.34;93.38
30636;BME280;17400;52.392;9.750;2023-06-10T02:44:57;101165.38;;;18.35;94.50
30636;BME280;17400;52.392;9.750;2023-06-10T02:47:27;101165.00;;;18.43;92.33
30636;BME280;17400;52.392;9.750;2023-06-10T02:49:55;101173.34;;;18.48;92.63
30636;BME280;17400;52.392;9.750;2023-06-10T02:52:23;101177.53;;;18.39;91.72
30636;BME280;17400;52.392;9.750;2023-06-10T02:54:51;101178.94;;;18.30;93.48
30636;BME280;17400;52.392;9.750;2023-06-10T02:57:20;101170.47;;;18.20;95.60
30636;BME280;17400;52.392;9.750;2023-06-10T02:59:48;101170.47;;;18.20;94.58
30636;BME280;17400;52.392;9.750;2023-06-10T03:02:16;101166.06;;;17.76;99.09
30636;BME280;17400;52.392;9.750;2023-06-10T03:04:45;101165.13;;;17.71;99.57
30636;BME280;17400;52.392;9.750;2023-06-10T03:07:13;101167.13;;;17.75;100.00
30636;BME280;17400;52.392;9.750;2023-06-10T03:09:41;101173.47;;;17.45;100.00
30636;BME280;17400;52.392;9.750;2023-06-10T03:12:11;101173.94;;;17.73;100.00
30636;BME280;17400;52.392;9.750;2023-06-10T03:14:39;101167.13;;;17.75;100.00
30636;BME280;17400;52.392;9.750;2023-06-10T03:17:07;101180.34;;;17.67;100.00
30636;BME280;17400;52.392;9.750;2023-06-10T03:19:36;101173.25;;;17.47;100.00
30636;BME280;17400;52.392;9.750;2023-06-10T03:22:10;101172.91;;;17.55;100.00
30636;BME280;17400;52.392;9.750;2023-06-10T03:24:38;101176.34;;;17.51;100.00
30636;BME280;17400;52.392;9.750;2023-06-10T03:27:07;101175.88;;;17.54;100.00
30636;BME280;17400;52.392;9.750;2023-06-10T03:29:36;101177.09;;;17.58;100.00
30636;BME280;17400;52.392;9.750;2023-06-10T03:32:04;101171.47;;;17.53;100.00
30636;BME280;17400;52.392;9.750;2023-06-10T03:34:33;101171.16;;;17.61;100.00
30636;BME280;17400;52.392;9.750;2023-06-10T03:37:01;101179.44;;;17.42;100.00
30636;BME280;17400;52.392;9.750;2023-06-10T03:39:30;101177.59;;;17.36;100.00
30636;BME280;17400;52.392;9.750;2023-06-10T03:41:58;101178.03;;;17.52;100.00
30636;BME280;17400;52.392;9.750;2023-06-10T03:44:26;101185.25;;;17.46;100.00
30636;BME280;17400;52.392;9.750;2023-06-10T03:46:55;101176.72;;;17.54;100.00
30636;BME280;17400;52.392;9.750;2023-06-10T03:49:24;101185.53;;;17.56;100.00
30636;BME280;17400;52.392;9.750;2023-06-10T03:51:53;101182.31;;;17.59;100.00
30636;BME280;17400;52.392;9.750;2023-06-10T03:54:21;101179.69;;;17.53;100.00
30636;BME280;17400;52.392;9.750;2023-06-10T03:56:51;101186.16;;;17.28;100.00
30636;BME280;17400;52.392;9.750;2023-06-10T03:59:22;101196.00;;;17.29;100.00
30636;BME280;17400;52.392;9.750;2023-06-10T04:01:52;101198.88;;;17.34;100.00
30636;BME280;17400;52.392;9.750;2023-06-10T04:04:22;101201.94;;;17.26;100.00
30636;BME280;17400;52.392;9.750;2023-06-10T04:06:51;101209.09;;;17.27;100.00
30636;BME280;17400;52.392;9.750;2023-06-10T04:09:19;101206.94;;;17.29;100.00
30636;BME280;17400;52.392;9.750;2023-06-10T04:11:50;101198.16;;;17.08;100.00
30636;BME280;17400;52.392;9.750;2023-06-10T04:14:18;101201.97;;;17.07;100.00
30636;BME280;17400;52.392;9.750;2023-06-10T04:16:46;101205.47;;;16.89;100.00
30636;BME280;17400;52.392;9.750;2023-06-10T04:19:14;101206.47;;;16.76;100.00
30636;BME280;17400;52.392;9.750;2023-06-10T04:21:43;101204.03;;;16.87;100.00
30636;BME280;17400;52.392;9.750;2023-06-10T04:24:10;101207.13;;;16.97;100.00
30636;BME280;17400;52.392;9.750;2023-06-10T04:26:39;101204.22;;;16.92;100.00
30636;BME280;17400;52.392;9.750;2023-06-10T04:29:08;101210.19;;;16.82;100.00
30636;BME280;17400;52.392;9.750;2023-06-10T04:31:36;101203.31;;;16.98;100.00
30636;BME280;17400;52.392;9.750;2023-06-10T04:34:04;101195.50;;;17.02;100.00
30636;BME280;17400;52.392;9.750;2023-06-10T04:36:32;101197.06;;;16.72;100.00
30636;BME280;17400;52.392;9.750;2023-06-10T04:39:00;101190.59;;;16.85;100.00
30636;BME280;17400;52.392;9.750;2023-06-10T04:41:28;101193.94;;;16.69;100.00
30636;BME280;17400;52.392;9.750;2023-06-10T04:43:56;101196.03;;;16.48;100.00
30636;BME280;17400;52.392;9.750;2023-06-10T04:46:25;101197.34;;;16.64;100.00
30636;BME280;17400;52.392;9.750;2023-06-10T04:48:53;101196.53;;;16.82;100.00
30636;BME280;17400;52.392;9.750;2023-06-10T04:51:21;101198.31;;;16.95;100.00
30636;BME280;17400;52.392;9.750;2023-06-10T04:53:49;101194.38;;;16.91;100.00
30636;BME280;17400;52.392;9.750;2023-06-10T04:56:17;101202.59;;;16.84;100.00
30636;BME280;17400;52.392;9.750;2023-06-10T04:58:45;101192.81;;;16.76;100.00
30636;BME280;17400;52.392;9.750;2023-06-10T05:01:13;101196.19;;;16.97;100.00
30636;BME280;17400;52.392;9.750;2023-06-10T05:03:42;101192.13;;;17.18;100.00
30636;BME280;17400;52.392;9.750;2023-06-10T05:06:10;101192.63;;;16.96;100.00
30636;BME280;17400;52.392;9.750;2023-06-10T05:08:39;101203.59;;;16.71;100.00
30636;BME280;17400;52.392;9.750;2023-06-10T05:11:07;101201.19;;;16.81;100.00
30636;BME280;17400;52.392;9.750;2023-06-10T05:13:35;101196.41;;;16.95;100.00
30636;BME280;17400;52.392;9.750;2023-06-10T05:16:03;101212.59;;;16.97;100.00
30636;BME280;17400;52.392;9.750;2023-06-10T05:18:31;101206.38;;;17.08;100.00
30636;BME280;17400;52.392;9.750;2023-06-10T05:21:00;101201.63;;;17.15;100.00
30636;BME280;17400;52.392;9.750;2023-06-10T05:23:29;101201.94;;;17.26;100.00
30636;BME280;17400;52.392;9.750;2023-06-10T05:25:57;101202.63;;;17.40;100.00
30636;BME280;17400;52.392;9.750;2023-06-10T05:28:25;101203.16;;;17.30;100.00
30636;BME280;17400;52.392;9.750;2023-06-10T05:30:53;101200.88;;;17.27;100.00
30636;BME280;17400;52.392;9.750;2023-06-10T05:33:21;101202.25;;;17.18;100.00
30636;BME280;17400;52.392;9.750;2023-06-10T05:35:50;101206.53;;;16.95;100.00
30636;BME280;17400;52.392;9.750;2023-06-10T05:38:20;101202.69;;;17.14;100.00
30636;BME280;17400;52.392;9.750;2023-06-10T05:40:48;101197.03;;;17.16;100.00
30636;BME280;17400;52.392;9.750;2023-06-10T05:43:16;101203.88;;;17.07;100.00
30636;BME280;17400;52.392;9.750;2023-06-10T05:45:44;101208.22;;;16.89;100.00
30636;BME280;17400;52.392;9.750;2023-06-10T05:48:12;101206.06;;;16.98;100.00
30636;BME280;17400;52.392;9.750;2023-06-10T05:50:40;101194.50;;;16.96;100.00
30636;BME280;17400;52.392;9.750;2023-06-10T05:53:09;101187.16;;;16.96;100.00
30636;BME280;17400;52.392;9.750;2023-06-10T05:55:43;101190.28;;;16.75;100.00
30636;BME280;17400;52.392;9.750;2023-06-10T05:58:12;101196.47;;;16.89;100.00
30636;BME280;17400;52.392;9.750;2023-06-10T06:00:41;101185.94;;;16.92;100.00
30636;BME280;17400;52.392;9.750;2023-06-10T06:03:09;101192.97;;;16.81;100.00
30636;BME280;17400;52.392;9.750;2023-06-10T06:05:37;101190.09;;;17.13;100.00
30636;BME280;17400;52.392;9.750;2023-06-10T06:08:08;101197.81;;;17.35;100.00
30636;BME280;17400;52.392;9.750;2023-06-10T06:10:37;101192.59;;;17.64;100.00
30636;BME280;17400;52.392;9.750;2023-06-10T06:13:06;101195.47;;;17.69;100.00
30636;BME280;17400;52.392;9.750;2023-06-10T06:15:34;101187.66;;;17.54;100.00
30636;BME280;17400;52.392;9.750;2023-06-10T06:18:02;101196.50;;;17.56;100.00
30636;BME280;17400;52.392;9.750;2023-06-10T06:20:30;101197.88;;;17.77;100.00
30636;BME280;17400;52.392;9.750;2023-06-10T06:22:58;101200.28;;;17.86;100.00
30636;BME280;17400;52.392;9.750;2023-06-10T06:25:26;101198.66;;;17.96;100.00
30636;BME280;17400;52.392;9.750;2023-06-10T06:27:54;101194.88;;;18.09;100.00
30636;BME280;17400;52.392;9.750;2023-06-10T06:30:23;101195.63;;;18.17;100.00
30636;BME280;17400;52.392;9.750;2023-06-10T06:32:51;101199.06;;;18.24;100.00
30636;BME280;17400;52.392;9.750;2023-06-10T06:35:19;101209.66;;;18.20;100.00
30636;BME280;17400;52.392;9.750;2023-06-10T06:37:48;101206.59;;;18.17;100.00
30636;BME280;17400;52.392;9.750;2023-06-10T06:40:15;101204.91;;;18.15;100.00
30636;BME280;17400;52.392;9.750;2023-06-10T06:42:44;101199.19;;;18.17;100.00
30636;BME280;17400;52.392;9.750;2023-06-10T06:45:12;101199.44;;;18.27;100.00
30636;BME280;17400;52.392;9.750;2023-06-10T06:47:41;101207.41;;;18.17;100.00
30636;BME280;17400;52.392;9.750;2023-06-10T06:50:10;101197.84;;;17.96;100.00
30636;BME280;17400;52.392;9.750;2023-06-10T06:52:37;101195.56;;;17.93;100.00
30636;BME280;17400;52.392;9.750;2023-06-10T06:55:06;101195.38;;;18.18;100.00
30636;BME280;17400;52.392;9.750;2023-06-10T06:57:34;101191.59;;;18.31;100.00
30636;BME280;17400;52.392;9.750;2023-06-10T07:00:03;101195.53;;;18.35;100.00
30636;BME280;17400;52.392;9.750;2023-06-10T07:02:32;101191.69;;;18.36;100.00
30636;BME280;17400;52.392;9.750;2023-06-10T07:05:02;101198.59;;;18.39;100.00
30636;BME280;17400;52.392;9.750;2023-06-10T07:07:30;101198.97;;;18.42;100.00
30636;BME280;17400;52.392;9.750;2023-06-10T07:09:58;101198.59;;;18.39;100.00
30636;BME280;17400;52.392;9.750;2023-06-10T07:12:26;101195.50;;;18.23;100.00
30636;BME280;17400;52.392;9.750;2023-06-10T07:14:53;101203.38;;;18.31;100.00
30636;BME280;17400;52.392;9.750;2023-06-10T07:17:21;101204.56;;;18.47;100.00
30636;BME280;17400;52.392;9.750;2023-06-10T07:19:49;101206.38;;;18.65;100.00
30636;BME280;17400;52.392;9.750;2023-06-10T07:22:19;101203.75;;;18.71;99.54
30636;BME280;17400;52.392;9.750;2023-06-10T07:24:47;101206.38;;;18.65;100.00
30636;BME280;17400;52.392;9.750;2023-06-10T07:27:15;101212.44;;;18.68;100.00
30636;BME280;17400;52.392;9.750;2023-06-10T07:29:42;101213.63;;;18.72;100.00
30636;BME280;17400;52.392;9.750;2023-06-10T07:32:10;101210.88;;;18.72;99.47
30636;BME280;17400;52.392;9.750;2023-06-10T07:34:38;101217.47;;;18.59;100.00
30636;BME280;17400;52.392;9.750;2023-06-10T07:37:06;101214.72;;;18.59;100.00
30636;BME280;17400;52.392;9.750;2023-06-10T07:39:35;101214.81;;;18.64;100.00
30636;BME280;17400;52.392;9.750;2023-06-10T07:42:04;101214.09;;;18.57;100.00
30636;BME280;17400;52.392;9.750;2023-06-10T07:44:32;101221.16;;;18.53;100.00
30636;BME280;17400;52.392;9.750;2023-06-10T07:46:59;101214.34;;;18.55;100.00
30636;BME280;17400;52.392;9.750;2023-06-10T07:49:27;101216.25;;;18.55;100.00
30636;BME280;17400;52.392;9.750;2023-06-10T07:51:55;101206.81;;;18.51;100.00
30636;BME280;17400;52.392;9.750;2023-06-10T07:54:23;101203.75;;;18.59;100.00
30636;BME280;17400;52.392;9.750;2023-06-10T07:56:57;101211.00;;;18.77;99.97
30636;BME280;17400;52.392;9.750;2023-06-10T07:59:25;101215.06;;;18.74;100.00
30636;BME280;17400;52.392;9.750;2023-06-10T08:01:53;101196.81;;;18.80;99.90
30636;BME280;17400;52.392;9.750;2023-06-10T08:04:21;101216.34;;;18.84;100.00
30636;BME280;17400;52.392;9.750;2023-06-10T08:06:49;101210.63;;;18.97;99.50
30636;BME280;17400;52.392;9.750;2023-06-10T08:09:17;101205.25;;;19.14;98.46
30636;BME280;17400;52.392;9.750;2023-06-10T08:11:46;101203.91;;;19.17;98.53
30636;BME280;17400;52.392;9.750;2023-06-10T08:14:15;101203.63;;;19.30;98.11
30636;BME280;17400;52.392;9.750;2023-06-10T08:16:43;101201.84;;;19.36;96.81
30636;BME280;17400;52.392;9.750;2023-06-10T08:19:12;101205.63;;;19.46;96.28
30636;BME280;17400;52.392;9.750;2023-06-10T08:21:40;101202.53;;;19.43;96.66
30636;BME280;17400;52.392;9.750;2023-06-10T08:24:09;101196.00;;;19.32;97.77
30636;BME280;17400;52.392;9.750;2023-06-10T08:26:38;101199.25;;;19.29;97.65
30636;BME280;17400;52.392;9.750;2023-06-10T08:29:06;101197.28;;;19.41;98.08
30636;BME280;17400;52.392;9.750;2023-06-10T08:31:35;101198.81;;;19.49;97.32
30636;BME280;17400;52.392;9.750;2023-06-10T08:34:03;101192.66;;;19.59;96.55
30636;BME280;17400;52.392;9.750;2023-06-10T08:36:31;101194.28;;;19.72;94.98
30636;BME280;17400;52.392;9.750;2023-06-10T08:38:59;101182.78;;;19.75;94.94
30636;BME280;17400;52.392;9.750;2023-06-10T08:41:28;101192.47;;;19.77;94.74
30636;BME280;17400;52.392;9.750;2023-06-10T08:44:03;101185.03;;;19.90;94.04
30636;BME280;17400;52.392;9.750;2023-06-10T08:46:31;101192.00;;;19.97;92.89
30636;BME280;17400;52.392;9.750;2023-06-10T08:49:03;101187.47;;;20.03;91.21
30636;BME280;17400;52.392;9.750;2023-06-10T08:51:34;101181.53;;;20.11;91.12
30636;BME280;17400;52.392;9.750;2023-06-10T08:54:05;101174.47;;;20.16;90.82
30636;BME280;17400;52.392;9.750;2023-06-10T08:56:39;101169.03;;;20.21;90.87
30636;BME280;17400;52.392;9.750;2023-06-10T08:59:08;101173.94;;;20.19;92.58
30636;BME280;17400;52.392;9.750;2023-06-10T09:01:36;101172.78;;;20.14;90.28
30636;BME280;17400;52.392;9.750;2023-06-10T09:04:06;101170.81;;;20.10;87.51
30636;BME280;17400;52.392;9.750;2023-06-10T09:06:34;101171.72;;;20.16;86.98
30636;BME280;17400;52.392;9.750;2023-06-10T09:09:05;101176.03;;;20.28;87.77
30636;BME280;17400;52.392;9.750;2023-06-10T09:11:33;101176.22;;;20.39;87.09
30636;BME280;17400;52.392;9.750;2023-06-10T09:14:01;101170.00;;;20.48;87.61
30636;BME280;17400;52.392;9.750;2023-06-10T09:16:28;101167.69;;;20.40;87.05
30636;BME280;17400;52.392;9.750;2023-06-10T09:18:56;101167.09;;;20.38;87.84
30636;BME280;17400;52.392;9.750;2023-06-10T09:21:26;101158.38;;;20.41;86.33
30636;BME280;17400;52.392;9.750;2023-06-10T09:23:54;101160.09;;;20.47;84.60
30636;BME280;17400;52.392;9.750;2023-06-10T09:26:28;101159.00;;;20.48;83.25
30636;BME280;17400;52.392;9.750;2023-06-10T09:29:02;101165.66;;;20.53;79.23
30636;BME280;17400;52.392;9.750;2023-06-10T09:31:30;101164.66;;;20.59;78.93
30636;BME280;17400;52.392;9.750;2023-06-10T09:34:07;101155.00;;;20.73;78.99
30636;BME280;17400;52.392;9.750;2023-06-10T09:36:37;101160.13;;;20.87;79.71
30636;BME280;17400;52.392;9.750;2023-06-10T09:39:13;101159.72;;;21.00;77.54
30636;BME280;17400;52.392;9.750;2023-06-10T09:41:42;101157.38;;;21.09;78.93
30636;BME280;17400;52.392;9.750;2023-06-10T09:44:12;101154.09;;;21.12;78.45
30636;BME280;17400;52.392;9.750;2023-06-10T09:46:41;101153.63;;;21.20;77.65
30636;BME280;17400;52.392;9.750;2023-06-10T09:49:09;101150.88;;;21.20;77.17
30636;BME280;17400;52.392;9.750;2023-06-10T09:51:49;101158.13;;;21.26;76.03
30636;BME280;17400;52.392;9.750;2023-06-10T09:54:17;101145.28;;;21.37;72.61
30636;BME280;17400;52.392;9.750;2023-06-10T09:56:46;101152.41;;;21.55;72.14
30636;BME280;17400;52.392;9.750;2023-06-10T09:59:14;101139.56;;;21.66;70.70
30636;BME280;17400;52.392;9.750;2023-06-10T10:01:42;101145.13;;;21.71;70.83
30636;BME280;17400;52.392;9.750;2023-06-10T10:04:10;101153.38;;;21.71;70.51
30636;BME280;17400;52.392;9.750;2023-06-10T10:06:40;101151.75;;;21.75;71.11
30636;BME280;17400;52.392;9.750;2023-06-10T10:09:08;101146.50;;;21.74;66.49
30636;BME280;17400;52.392;9.750;2023-06-10T10:11:36;101142.97;;;21.78;67.73
30636;BME280;17400;52.392;9.750;2023-06-10T10:14:05;101143.00;;;21.84;69.68
30636;BME280;17400;52.392;9.750;2023-06-10T10:16:37;101140.03;;;21.90;70.07
30636;BME280;17400;52.392;9.750;2023-06-10T10:19:10;101142.81;;;21.95;71.25
30636;BME280;17400;52.392;9.750;2023-06-10T10:21:45;101139.84;;;22.02;71.79
30636;BME280;17400;52.392;9.750;2023-06-10T10:24:20;101139.06;;;22.07;72.00
30636;BME280;17400;52.392;9.750;2023-06-10T10:26:50;101153.09;;;22.05;71.56
30636;BME280;17400;52.392;9.750;2023-06-10T10:29:24;101145.97;;;22.09;73.44
30636;BME280;17400;52.392;9.750;2023-06-10T10:31:54;101140.47;;;22.14;73.07
30636;BME280;17400;52.392;9.750;2023-06-10T10:34:27;101147.97;;;22.19;72.96
30636;BME280;17400;52.392;9.750;2023-06-10T10:37:00;101146.38;;;22.28;73.02
30636;BME280;17400;52.392;9.750;2023-06-10T10:39:28;101154.81;;;22.44;71.29
30636;BME280;17400;52.392;9.750;2023-06-10T10:41:57;101141.28;;;22.48;72.39
30636;BME280;17400;52.392;9.750;2023-06-10T10:44:27;101149.94;;;22.61;70.44
30636;BME280;17400;52.392;9.750;2023-06-10T10:46:56;101141.38;;;22.63;71.86
30636;BME280;17400;52.392;9.750;2023-06-10T10:49:32;101134.50;;;22.66;71.71
30636;BME280;17400;52.392;9.750;2023-06-10T10:52:11;101138.88;;;22.61;72.65
30636;BME280;17400;52.392;9.750;2023-06-10T10:54:45;101135.84;;;22.63;73.78
30636;BME280;17400;52.392;9.750;2023-06-10T10:57:15;101135.31;;;22.66;74.28
30636;BME280;17400;52.392;9.750;2023-06-10T10:59:56;101140.38;;;22.79;74.87
30636;BME280;17400;52.392;9.750;2023-06-10T11:02:37;101140.38;;;22.90;75.43
30636;BME280;17400;52.392;9.750;2023-06-10T11:05:11;101134.91;;;23.00;74.90
30636;BME280;17400;52.392;9.750;2023-06-10T11:07:51;101134.66;;;23.07;76.71
30636;BME280;17400;52.392;9.750;2023-06-10T11:10:30;101126.47;;;23.22;75.22
30636;BME280;17400;52.392;9.750;2023-06-10T11:13:01;101128.97;;;23.34;73.82
30636;BME280;17400;52.392;9.750;2023-06-10T11:15:33;101133.13;;;23.37;75.80
30636;BME280;17400;52.392;9.750;2023-06-10T11:18:20;101116.84;;;23.40;77.18
30636;BME280;17400;52.392;9.750;2023-06-10T11:20:56;101124.03;;;23.57;74.86
30636;BME280;17400;52.392;9.750;2023-06-10T11:23:33;101125.41;;;23.49;76.64
30636;BME280;17400;52.392;9.750;2023-06-10T11:26:17;101110.22;;;23.67;75.43
30636;BME280;17400;52.392;9.750;2023-06-10T11:29:07;101108.56;;;23.97;72.31
30636;BME280;17400;52.392;9.750;2023-06-10T11:31:42;101101.94;;;23.98;74.28
30636;BME280;17400;52.392;9.750;2023-06-10T11:34:12;101117.97;;;24.11;73.58
30636;BME280;17400;52.392;9.750;2023-06-10T11:36:42;101105.81;;;24.07;73.07
30636;BME280;17400;52.392;9.750;2023-06-10T11:39:14;101104.13;;;24.17;71.49
30636;BME280;17400;52.392;9.750;2023-06-10T11:41:42;101092.22;;;24.26;71.25
30636;BME280;17400;52.392;9.750;2023-06-10T11:44:12;101105.84;;;24.93;67.02
30636;BME280;17400;52.392;9.750;2023-06-10T11:46:47;101099.94;;;25.10;63.99
30636;BME280;17400;52.392;9.750;2023-06-10T11:49:15;101098.09;;;24.95;66.34
30636;BME280;17400;52.392;9.750;2023-06-10T11:51:44;101090.59;;;24.96;65.91
30636;BME280;17400;52.392;9.750;2023-06-10T11:54:18;101094.38;;;25.16;65.64
30636;BME280;17400;52.392;9.750;2023-06-10T11:56:47;101088.38;;;24.98;66.48
30636;BME280;17400;52.392;9.750;2023-06-10T11:59:17;101091.13;;;25.03;67.75
30636;BME280;17400;52.392;9.750;2023-06-10T12:01:45;101083.78;;;25.23;65.76
30636;BME280;17400;52.392;9.750;2023-06-10T12:04:15;101083.66;;;26.13;58.67
30636;BME280;17400;52.392;9.750;2023-06-10T12:06:46;101084.94;;;26.93;55.44
30636;BME280;17400;52.392;9.750;2023-06-10T12:09:19;101084.06;;;27.55;53.13
30636;BME280;17400;52.392;9.750;2023-06-10T12:11:57;101071.34;;;27.82;50.28
30636;BME280;17400;52.392;9.750;2023-06-10T12:14:53;101074.38;;;27.99;50.44
30636;BME280;17400;52.392;9.750;2023-06-10T12:17:23;101071.06;;;28.30;50.29
30636;BME280;17400;52.392;9.750;2023-06-10T12:19:51;101076.19;;;28.23;49.38
30636;BME280;17400;52.392;9.750;2023-06-10T12:22:19;101077.63;;;28.06;49.26
30636;BME280;17400;52.392;9.750;2023-06-10T12:25:02;101077.16;;;27.99;48.54
30636;BME280;17400;52.392;9.750;2023-06-10T12:27:31;101062.31;;;27.90;47.09
30636;BME280;17400;52.392;9.750;2023-06-10T12:30:00;101064.34;;;27.84;49.26
30636;BME280;17400;52.392;9.750;2023-06-10T12:32:39;101063.63;;;27.46;50.12
30636;BME280;17400;52.392;9.750;2023-06-10T12:35:08;101054.31;;;27.36;50.31
30636;BME280;17400;52.392;9.750;2023-06-10T12:37:39;101052.91;;;27.39;49.57
30636;BME280;17400;52.392;9.750;2023-06-10T12:40:11;101061.59;;;27.51;48.63
30636;BME280;17400;52.392;9.750;2023-06-10T12:42:40;101052.72;;;27.49;46.38
30636;BME280;17400;52.392;9.750;2023-06-10T12:45:10;101042.34;;;27.55;46.54
30636;BME280;17400;52.392;9.750;2023-06-10T12:48:23;101038.72;;;27.54;45.95
30636;BME280;17400;52.392;9.750;2023-06-10T12:50:56;101054.59;;;27.54;46.27
30636;BME280;17400;52.392;9.750;2023-06-10T12:53:27;101041.59;;;27.49;45.80
30636;BME280;17400;52.392;9.750;2023-06-10T12:55:58;101036.78;;;27.55;45.94
30636;BME280;17400;52.392;9.750;2023-06-10T12:58:28;101036.41;;;27.62;45.44